sensor_id;sensor_type;location;lat;lon;timestamp;P1;durP1;ratioP1;P2;durP2;ratioP2
38851;SDS011;24605;50.092;9.182;2023-05-15T00:02:14;9.15;;;4.07;;
38851;SDS011;24605;50.092;9.182;2023-05-15T00:04:40;6.50;;;4.00;;
38851;SDS011;24605;50.092;9.182;2023-05-15T00:07:07;5.43;;;3.63;;
38851;SDS011;24605;50.092;9.182;2023-05-15T00:09:33;6.43;;;3.45;;
38851;SDS011;24605;50.092;9.182;2023-05-15T00:12:00;5.72;;;3.97;;
38851;SDS011;24605;50.092;9.182;2023-05-15T00:14:26;5.78;;;4.20;;
38851;SDS011;24605;50.092;9.182;2023-05-15T00:16:53;5.65;;;3.90;;
38851;SDS011;24605;50.092;9.182;2023-05-15T00:19:21;7.63;;;4.15;;
38851;SDS011;24605;50.092;9.182;2023-05-15T00:21:47;6.30;;;4.07;;
38851;SDS011;24605;50.092;9.182;2023-05-15T00:24:14;5.50;;;3.72;;
38851;SDS011;24605;50.092;9.182;2023-05-15T00:26:40;14.32;;;4.50;;
38851;SDS011;24605;50.092;9.182;2023-05-15T00:29:07;6.18;;;4.20;;
38851;SDS011;24605;50.092;9.182;2023-05-15T00:31:33;6.93;;;4.32;;
38851;SDS011;24605;50.092;9.182;2023-05-15T00:34:00;7.50;;;4.38;;
38851;SDS011;24605;50.092;9.182;2023-05-15T00:36:27;5.63;;;3.70;;
38851;SDS011;24605;50.092;9.182;2023-05-15T00:38:54;6.53;;;4.00;;
38851;SDS011;24605;50.092;9.182;2023-05-15T00:41:21;5.90;;;4.15;;
38851;SDS011;24605;50.092;9.182;2023-05-15T00:43:50;7.20;;;4.25;;
38851;SDS011;24605;50.092;9.182;2023-05-15T00:46:18;5.50;;;3.60;;
38851;SDS011;24605;50.092;9.182;2023-05-15T00:48:45;6.55;;;3.83;;
38851;SDS011;24605;50.092;9.182;2023-05-15T00:51:13;5.57;;;3.67;;
38851;SDS011;24605;50.092;9.182;2023-05-15T00:53:41;6.63;;;3.95;;
38851;SDS011;24605;50.092;9.182;2023-05-15T00:56:08;5.43;;;3.40;;
38851;SDS011;24605;50.092;9.182;2023-05-15T00:58:36;5.60;;;3.80;;
38851;SDS011;24605;50.092;9.182;2023-05-15T01:01:03;5.63;;;3.70;;
38851;SDS011;24605;50.092;9.182;2023-05-15T01:03:31;5.45;;;3.78;;
38851;SDS011;24605;50.092;9.182;2023-05-15T01:05:57;5.18;;;3.80;;
38851;SDS011;24605;50.092;9.182;2023-05-15T01:08:25;7.15;;;4.10;;
38851;SDS011;24605;50.092;9.182;2023-05-15T01:10:56;5.88;;;3.90;;
38851;SDS011;24605;50.092;9.182;2023-05-15T01:13:24;5.43;;;3.60;;
38851;SDS011;24605;50.092;9.182;2023-05-15T01:15:50;5.28;;;3.70;;
38851;SDS011;24605;50.092;9.182;2023-05-15T01:18:17;6.30;;;3.75;;
38851;SDS011;24605;50.092;9.182;2023-05-15T01:20:46;6.25;;;3.72;;
38851;SDS011;24605;50.092;9.182;2023-05-15T01:23:27;6.85;;;3.90;;
38851;SDS011;24605;50.092;9.182;2023-05-15T01:29:06;5.75;;;3.72;;
38851;SDS011;24605;50.092;9.182;2023-05-15T01:31:37;5.78;;;3.80;;
38851;SDS011;24605;50.092;9.182;2023-05-15T01:34:07;6.03;;;4.10;;
38851;SDS011;24605;50.092;9.182;2023-05-15T01:36:36;5.80;;;3.97;;
38851;SDS011;24605;50.092;9.182;2023-05-15T01:39:07;6.88;;;4.00;;
38851;SDS011;24605;50.092;9.182;2023-05-15T01:41:40;5.40;;;3.78;;
38851;SDS011;24605;50.092;9.182;2023-05-15T01:44:14;5.88;;;3.80;;
38851;SDS011;24605;50.092;9.182;2023-05-15T01:46:45;6.03;;;3.95;;
38851;SDS011;24605;50.092;9.182;2023-05-15T01:49:15;6.05;;;4.13;;
38851;SDS011;24605;50.092;9.182;2023-05-15T01:51:44;6.75;;;4.10;;
38851;SDS011;24605;50.092;9.182;2023-05-15T01:54:14;7.13;;;3.95;;
38851;SDS011;24605;50.092;9.182;2023-05-15T01:56:43;6.18;;;4.30;;
38851;SDS011;24605;50.092;9.182;2023-05-15T01:59:12;7.07;;;3.95;;
38851;SDS011;24605;50.092;9.182;2023-05-15T02:01:40;5.90;;;4.28;;
38851;SDS011;24605;50.092;9.182;2023-05-15T02:04:07;6.22;;;4.32;;
38851;SDS011;24605;50.092;9.182;2023-05-15T02:06:35;6.93;;;4.25;;
38851;SDS011;24605;50.092;9.182;2023-05-15T02:09:03;6.90;;;4.50;;
38851;SDS011;24605;50.092;9.182;2023-05-15T02:11:29;5.45;;;3.80;;
38851;SDS011;24605;50.092;9.182;2023-05-15T02:13:56;7.50;;;4.40;;
38851;SDS011;24605;50.092;9.182;2023-05-15T02:16:26;5.82;;;4.18;;
38851;SDS011;24605;50.092;9.182;2023-05-15T02:18:53;6.47;;;4.28;;
38851;SDS011;24605;50.092;9.182;2023-05-15T02:21:19;7.93;;;4.70;;
38851;SDS011;24605;50.092;9.182;2023-05-15T02:23:46;6.88;;;4.05;;
38851;SDS011;24605;50.092;9.182;2023-05-15T02:26:15;6.53;;;4.15;;
38851;SDS011;24605;50.092;9.182;2023-05-15T02:28:53;6.32;;;4.20;;
38851;SDS011;24605;50.092;9.182;2023-05-15T02:31:30;7.20;;;4.57;;
38851;SDS011;24605;50.092;9.182;2023-05-15T02:34:05;8.27;;;4.72;;
38851;SDS011;24605;50.092;9.182;2023-05-15T02:36:37;7.97;;;5.00;;
38851;SDS011;24605;50.092;9.182;2023-05-15T02:39:11;6.85;;;4.50;;
38851;SDS011;24605;50.092;9.182;2023-05-15T02:41:40;5.95;;;4.30;;
38851;SDS011;24605;50.092;9.182;2023-05-15T02:44:07;7.07;;;4.70;;
38851;SDS011;24605;50.092;9.182;2023-05-15T02:46:36;6.78;;;4.68;;
38851;SDS011;24605;50.092;9.182;2023-05-15T02:49:04;7.35;;;4.50;;
38851;SDS011;24605;50.092;9.182;2023-05-15T02:51:31;9.13;;;4.68;;
38851;SDS011;24605;50.092;9.182;2023-05-15T02:53:58;8.15;;;5.47;;
38851;SDS011;24605;50.092;9.182;2023-05-15T02:56:26;7.35;;;5.15;;
38851;SDS011;24605;50.092;9.182;2023-05-15T02:58:52;7.05;;;4.97;;
38851;SDS011;24605;50.092;9.182;2023-05-15T03:01:19;6.15;;;4.65;;
38851;SDS011;24605;50.092;9.182;2023-05-15T03:03:46;7.18;;;4.72;;
38851;SDS011;24605;50.092;9.182;2023-05-15T03:06:13;8.57;;;5.15;;
38851;SDS011;24605;50.092;9.182;2023-05-15T03:08:40;6.68;;;4.57;;
38851;SDS011;24605;50.092;9.182;2023-05-15T03:11:07;7.78;;;5.10;;
38851;SDS011;24605;50.092;9.182;2023-05-15T03:13:33;7.55;;;4.82;;
38851;SDS011;24605;50.092;9.182;2023-05-15T03:15:59;6.53;;;4.80;;
38851;SDS011;24605;50.092;9.182;2023-05-15T03:18:26;6.22;;;4.47;;
38851;SDS011;24605;50.092;9.182;2023-05-15T03:20:54;7.13;;;4.82;;
38851;SDS011;24605;50.092;9.182;2023-05-15T03:23:20;6.53;;;4.88;;
38851;SDS011;24605;50.092;9.182;2023-05-15T03:25:47;7.15;;;4.93;;
38851;SDS011;24605;50.092;9.182;2023-05-15T03:28:13;7.50;;;5.22;;
38851;SDS011;24605;50.092;9.182;2023-05-15T03:30:42;7.50;;;4.35;;
38851;SDS011;24605;50.092;9.182;2023-05-15T03:33:09;7.03;;;5.03;;
38851;SDS011;24605;50.092;9.182;2023-05-15T03:35:35;8.52;;;5.00;;
38851;SDS011;24605;50.092;9.182;2023-05-15T03:38:03;9.30;;;5.20;;
38851;SDS011;24605;50.092;9.182;2023-05-15T03:40:29;7.65;;;4.78;;
38851;SDS011;24605;50.092;9.182;2023-05-15T03:42:56;8.40;;;5.07;;
38851;SDS011;24605;50.092;9.182;2023-05-15T03:45:22;7.97;;;5.13;;
38851;SDS011;24605;50.092;9.182;2023-05-15T03:47:49;9.50;;;5.47;;
38851;SDS011;24605;50.092;9.182;2023-05-15T03:50:15;7.10;;;5.43;;
38851;SDS011;24605;50.092;9.182;2023-05-15T03:52:42;9.52;;;6.93;;
38851;SDS011;24605;50.092;9.182;2023-05-15T03:55:10;8.57;;;6.20;;
38851;SDS011;24605;50.092;9.182;2023-05-15T03:57:37;8.48;;;6.10;;
38851;SDS011;24605;50.092;9.182;2023-05-15T04:00:06;8.70;;;6.03;;
38851;SDS011;24605;50.092;9.182;2023-05-15T04:02:34;8.35;;;5.82;;
38851;SDS011;24605;50.092;9.182;2023-05-15T04:05:01;8.30;;;5.70;;
38851;SDS011;24605;50.092;9.182;2023-05-15T04:07:29;8.30;;;5.60;;
38851;SDS011;24605;50.092;9.182;2023-05-15T04:09:55;7.45;;;5.20;;
38851;SDS011;24605;50.092;9.182;2023-05-15T04:12:26;7.50;;;4.95;;
38851;SDS011;24605;50.092;9.182;2023-05-15T04:14:53;8.20;;;5.82;;
38851;SDS011;24605;50.092;9.182;2023-05-15T04:17:20;8.23;;;5.22;;
38851;SDS011;24605;50.092;9.182;2023-05-15T04:19:47;9.43;;;5.50;;
38851;SDS011;24605;50.092;9.182;2023-05-15T04:22:13;6.70;;;4.63;;
38851;SDS011;24605;50.092;9.182;2023-05-15T04:24:40;7.32;;;5.13;;
38851;SDS011;24605;50.092;9.182;2023-05-15T04:27:06;8.68;;;6.10;;
38851;SDS011;24605;50.092;9.182;2023-05-15T04:29:34;10.35;;;6.13;;
38851;SDS011;24605;50.092;9.182;2023-05-15T04:32:00;8.80;;;6.13;;
38851;SDS011;24605;50.092;9.182;2023-05-15T04:34:27;14.55;;;10.60;;
38851;SDS011;24605;50.092;9.182;2023-05-15T04:36:54;19.70;;;14.20;;
38851;SDS011;24605;50.092;9.182;2023-05-15T04:39:20;15.85;;;10.48;;
38851;SDS011;24605;50.092;9.182;2023-05-15T04:41:47;13.40;;;9.93;;
38851;SDS011;24605;50.092;9.182;2023-05-15T04:44:13;11.93;;;7.95;;
38851;SDS011;24605;50.092;9.182;2023-05-15T04:46:41;11.25;;;7.32;;
38851;SDS011;24605;50.092;9.182;2023-05-15T04:49:08;10.10;;;7.30;;
38851;SDS011;24605;50.092;9.182;2023-05-15T04:51:35;11.18;;;6.88;;
38851;SDS011;24605;50.092;9.182;2023-05-15T04:54:01;10.27;;;6.63;;
38851;SDS011;24605;50.092;9.182;2023-05-15T04:56:28;11.48;;;6.80;;
38851;SDS011;24605;50.092;9.182;2023-05-15T04:58:54;9.48;;;6.50;;
38851;SDS011;24605;50.092;9.182;2023-05-15T05:01:21;8.55;;;6.25;;
38851;SDS011;24605;50.092;9.182;2023-05-15T05:03:48;9.48;;;6.60;;
38851;SDS011;24605;50.092;9.182;2023-05-15T05:06:15;10.23;;;6.20;;
38851;SDS011;24605;50.092;9.182;2023-05-15T05:08:41;9.50;;;6.60;;
38851;SDS011;24605;50.092;9.182;2023-05-15T05:11:08;8.68;;;6.00;;
38851;SDS011;24605;50.092;9.182;2023-05-15T05:13:34;9.32;;;6.50;;
38851;SDS011;24605;50.092;9.182;2023-05-15T05:16:01;10.60;;;6.85;;
38851;SDS011;24605;50.092;9.182;2023-05-15T05:18:28;10.68;;;7.60;;
38851;SDS011;24605;50.092;9.182;2023-05-15T05:20:59;8.40;;;6.75;;
38851;SDS011;24605;50.092;9.182;2023-05-15T05:23:25;10.98;;;7.63;;
38851;SDS011;24605;50.092;9.182;2023-05-15T05:25:52;10.40;;;7.07;;
38851;SDS011;24605;50.092;9.182;2023-05-15T05:28:19;10.60;;;7.63;;
38851;SDS011;24605;50.092;9.182;2023-05-15T05:30:45;8.65;;;6.63;;
38851;SDS011;24605;50.092;9.182;2023-05-15T05:33:12;8.82;;;7.03;;
38851;SDS011;24605;50.092;9.182;2023-05-15T05:35:39;10.15;;;7.50;;
38851;SDS011;24605;50.092;9.182;2023-05-15T05:38:07;10.23;;;7.20;;
38851;SDS011;24605;50.092;9.182;2023-05-15T05:40:33;9.10;;;6.90;;
38851;SDS011;24605;50.092;9.182;2023-05-15T05:43:02;11.43;;;7.20;;
38851;SDS011;24605;50.092;9.182;2023-05-15T05:45:28;9.60;;;7.15;;
38851;SDS011;24605;50.092;9.182;2023-05-15T05:47:55;8.48;;;6.45;;
38851;SDS011;24605;50.092;9.182;2023-05-15T05:50:22;10.48;;;6.82;;
38851;SDS011;24605;50.092;9.182;2023-05-15T05:52:49;11.57;;;6.88;;
38851;SDS011;24605;50.092;9.182;2023-05-15T05:55:17;8.38;;;6.45;;
38851;SDS011;24605;50.092;9.182;2023-05-15T05:57:43;10.13;;;6.53;;
38851;SDS011;24605;50.092;9.182;2023-05-15T06:00:10;11.13;;;7.40;;
38851;SDS011;24605;50.092;9.182;2023-05-15T06:02:38;9.98;;;6.72;;
38851;SDS011;24605;50.092;9.182;2023-05-15T06:05:05;8.43;;;6.53;;
38851;SDS011;24605;50.092;9.182;2023-05-15T06:07:32;8.95;;;6.90;;
38851;SDS011;24605;50.092;9.182;2023-05-15T06:09:59;11.90;;;6.82;;
38851;SDS011;24605;50.092;9.182;2023-05-15T06:12:27;11.63;;;6.90;;
38851;SDS011;24605;50.092;9.182;2023-05-15T06:14:53;9.95;;;5.75;;
38851;SDS011;24605;50.092;9.182;2023-05-15T06:17:20;8.43;;;5.75;;
38851;SDS011;24605;50.092;9.182;2023-05-15T06:19:46;22.05;;;6.57;;
38851;SDS011;24605;50.092;9.182;2023-05-15T06:22:13;9.23;;;5.82;;
38851;SDS011;24605;50.092;9.182;2023-05-15T06:24:39;10.13;;;6.20;;
38851;SDS011;24605;50.092;9.182;2023-05-15T06:27:06;7.38;;;5.35;;
38851;SDS011;24605;50.092;9.182;2023-05-15T06:29:34;7.68;;;5.95;;
38851;SDS011;24605;50.092;9.182;2023-05-15T06:32:00;7.53;;;5.40;;
38851;SDS011;24605;50.092;9.182;2023-05-15T06:34:27;8.63;;;5.43;;
38851;SDS011;24605;50.092;9.182;2023-05-15T06:36:53;8.43;;;5.45;;
38851;SDS011;24605;50.092;9.182;2023-05-15T06:39:20;8.48;;;5.15;;
38851;SDS011;24605;50.092;9.182;2023-05-15T06:41:46;8.77;;;4.80;;
38851;SDS011;24605;50.092;9.182;2023-05-15T06:44:13;7.82;;;4.57;;
38851;SDS011;24605;50.092;9.182;2023-05-15T06:46:41;7.00;;;5.18;;
38851;SDS011;24605;50.092;9.182;2023-05-15T06:49:07;9.18;;;4.72;;
38851;SDS011;24605;50.092;9.182;2023-05-15T06:51:34;6.90;;;4.60;;
38851;SDS011;24605;50.092;9.182;2023-05-15T06:54:00;6.85;;;4.32;;
38851;SDS011;24605;50.092;9.182;2023-05-15T06:56:27;6.68;;;5.38;;
38851;SDS011;24605;50.092;9.182;2023-05-15T06:58:53;6.93;;;4.40;;
38851;SDS011;24605;50.092;9.182;2023-05-15T07:01:20;7.47;;;4.40;;
38851;SDS011;24605;50.092;9.182;2023-05-15T07:03:48;5.90;;;4.10;;
38851;SDS011;24605;50.092;9.182;2023-05-15T07:06:14;7.18;;;4.68;;
38851;SDS011;24605;50.092;9.182;2023-05-15T07:08:41;7.03;;;4.25;;
38851;SDS011;24605;50.092;9.182;2023-05-15T07:11:07;7.38;;;4.30;;
38851;SDS011;24605;50.092;9.182;2023-05-15T07:13:34;8.23;;;4.47;;
38851;SDS011;24605;50.092;9.182;2023-05-15T07:16:01;5.90;;;3.72;;
38851;SDS011;24605;50.092;9.182;2023-05-15T07:18:28;4.85;;;3.72;;
38851;SDS011;24605;50.092;9.182;2023-05-15T07:20:56;7.85;;;4.68;;
38851;SDS011;24605;50.092;9.182;2023-05-15T07:23:23;5.90;;;4.15;;
38851;SDS011;24605;50.092;9.182;2023-05-15T07:25:49;5.85;;;4.07;;
38851;SDS011;24605;50.092;9.182;2023-05-15T07:28:17;7.75;;;4.38;;
38851;SDS011;24605;50.092;9.182;2023-05-15T07:30:43;7.93;;;4.50;;
38851;SDS011;24605;50.092;9.182;2023-05-15T07:33:10;5.93;;;3.88;;
38851;SDS011;24605;50.092;9.182;2023-05-15T07:35:36;7.78;;;4.55;;
38851;SDS011;24605;50.092;9.182;2023-05-15T07:38:04;5.95;;;4.07;;
38851;SDS011;24605;50.092;9.182;2023-05-15T07:40:31;6.65;;;5.03;;
38851;SDS011;24605;50.092;9.182;2023-05-15T07:42:57;6.72;;;4.93;;
38851;SDS011;24605;50.092;9.182;2023-05-15T07:45:24;7.25;;;4.55;;
38851;SDS011;24605;50.092;9.182;2023-05-15T07:47:50;7.82;;;5.13;;
38851;SDS011;24605;50.092;9.182;2023-05-15T07:50:17;7.25;;;5.03;;
38851;SDS011;24605;50.092;9.182;2023-05-15T07:52:43;6.70;;;4.53;;
38851;SDS011;24605;50.092;9.182;2023-05-15T07:55:11;7.88;;;5.07;;
38851;SDS011;24605;50.092;9.182;2023-05-15T07:57:38;6.93;;;4.60;;
38851;SDS011;24605;50.092;9.182;2023-05-15T08:00:05;7.95;;;4.78;;
38851;SDS011;24605;50.092;9.182;2023-05-15T08:02:34;7.32;;;4.70;;
38851;SDS011;24605;50.092;9.182;2023-05-15T08:05:00;6.85;;;4.72;;
38851;SDS011;24605;50.092;9.182;2023-05-15T08:07:29;6.72;;;4.90;;
38851;SDS011;24605;50.092;9.182;2023-05-15T08:09:57;5.75;;;4.40;;
38851;SDS011;24605;50.092;9.182;2023-05-15T08:12:25;6.97;;;4.70;;
38851;SDS011;24605;50.092;9.182;2023-05-15T08:14:52;6.28;;;4.60;;
38851;SDS011;24605;50.092;9.182;2023-05-15T08:17:20;7.75;;;4.68;;
38851;SDS011;24605;50.092;9.182;2023-05-15T08:19:47;6.88;;;4.35;;
38851;SDS011;24605;50.092;9.182;2023-05-15T08:22:13;7.57;;;4.50;;
38851;SDS011;24605;50.092;9.182;2023-05-15T08:24:41;7.50;;;4.47;;
38851;SDS011;24605;50.092;9.182;2023-05-15T08:27:08;6.28;;;4.65;;
38851;SDS011;24605;50.092;9.182;2023-05-15T08:29:36;6.32;;;4.45;;
38851;SDS011;24605;50.092;9.182;2023-05-15T08:32:03;5.53;;;4.50;;
38851;SDS011;24605;50.092;9.182;2023-05-15T08:34:31;6.95;;;5.03;;
38851;SDS011;24605;50.092;9.182;2023-05-15T08:36:57;6.35;;;4.53;;
38851;SDS011;24605;50.092;9.182;2023-05-15T08:39:24;6.40;;;4.80;;
38851;SDS011;24605;50.092;9.182;2023-05-15T08:41:51;6.00;;;4.50;;
38851;SDS011;24605;50.092;9.182;2023-05-15T08:44:22;6.15;;;4.57;;
38851;SDS011;24605;50.092;9.182;2023-05-15T08:46:50;9.50;;;4.10;;
38851;SDS011;24605;50.092;9.182;2023-05-15T08:49:19;6.55;;;4.82;;
38851;SDS011;24605;50.092;9.182;2023-05-15T08:51:52;5.97;;;4.32;;
38851;SDS011;24605;50.092;9.182;2023-05-15T08:54:19;7.72;;;4.22;;
38851;SDS011;24605;50.092;9.182;2023-05-15T08:56:46;7.78;;;4.20;;
38851;SDS011;24605;50.092;9.182;2023-05-15T08:59:13;6.63;;;4.72;;
38851;SDS011;24605;50.092;9.182;2023-05-15T09:01:39;10.32;;;4.40;;
38851;SDS011;24605;50.092;9.182;2023-05-15T09:04:07;8.20;;;3.90;;
38851;SDS011;24605;50.092;9.182;2023-05-15T09:06:34;7.07;;;4.88;;
38851;SDS011;24605;50.092;9.182;2023-05-15T09:09:02;6.28;;;4.53;;
38851;SDS011;24605;50.092;9.182;2023-05-15T09:11:30;6.18;;;4.65;;
38851;SDS011;24605;50.092;9.182;2023-05-15T09:13:57;8.25;;;4.60;;
38851;SDS011;24605;50.092;9.182;2023-05-15T09:16:24;9.30;;;4.50;;
38851;SDS011;24605;50.092;9.182;2023-05-15T09:18:51;7.53;;;4.50;;
38851;SDS011;24605;50.092;9.182;2023-05-15T09:21:23;5.35;;;3.90;;
38851;SDS011;24605;50.092;9.182;2023-05-15T09:23:50;6.15;;;4.32;;
38851;SDS011;24605;50.092;9.182;2023-05-15T09:26:17;7.30;;;4.10;;
38851;SDS011;24605;50.092;9.182;2023-05-15T09:28:43;6.65;;;4.53;;
38851;SDS011;24605;50.092;9.182;2023-05-15T09:31:11;6.28;;;4.47;;
38851;SDS011;24605;50.092;9.182;2023-05-15T09:33:39;7.93;;;4.45;;
38851;SDS011;24605;50.092;9.182;2023-05-15T09:36:07;7.82;;;4.15;;
38851;SDS011;24605;50.092;9.182;2023-05-15T09:38:39;5.95;;;4.32;;
38851;SDS011;24605;50.092;9.182;2023-05-15T09:41:06;7.35;;;4.32;;
38851;SDS011;24605;50.092;9.182;2023-05-15T09:43:34;7.20;;;4.65;;
38851;SDS011;24605;50.092;9.182;2023-05-15T09:46:02;9.80;;;4.35;;
38851;SDS011;24605;50.092;9.182;2023-05-15T09:48:30;7.43;;;4.63;;
38851;SDS011;24605;50.092;9.182;2023-05-15T09:50:56;7.03;;;4.43;;
38851;SDS011;24605;50.092;9.182;2023-05-15T09:53:23;7.45;;;4.70;;
38851;SDS011;24605;50.092;9.182;2023-05-15T09:55:51;7.18;;;4.55;;
38851;SDS011;24605;50.092;9.182;2023-05-15T09:58:18;8.18;;;4.30;;
38851;SDS011;24605;50.092;9.182;2023-05-15T10:00:45;6.75;;;4.25;;
38851;SDS011;24605;50.092;9.182;2023-05-15T10:03:13;5.30;;;4.07;;
38851;SDS011;24605;50.092;9.182;2023-05-15T10:05:40;8.07;;;4.78;;
38851;SDS011;24605;50.092;9.182;2023-05-15T10:08:07;8.70;;;4.63;;
38851;SDS011;24605;50.092;9.182;2023-05-15T10:10:33;6.97;;;4.20;;
38851;SDS011;24605;50.092;9.182;2023-05-15T10:13:01;5.68;;;3.70;;
38851;SDS011;24605;50.092;9.182;2023-05-15T10:15:29;7.03;;;4.28;;
38851;SDS011;24605;50.092;9.182;2023-05-15T10:17:56;6.18;;;3.88;;
38851;SDS011;24605;50.092;9.182;2023-05-15T10:20:24;7.22;;;4.20;;
38851;SDS011;24605;50.092;9.182;2023-05-15T10:22:52;7.03;;;3.97;;
38851;SDS011;24605;50.092;9.182;2023-05-15T10:25:21;7.15;;;3.83;;
38851;SDS011;24605;50.092;9.182;2023-05-15T10:27:51;7.95;;;3.83;;
38851;SDS011;24605;50.092;9.182;2023-05-15T10:30:21;10.13;;;4.18;;
38851;SDS011;24605;50.092;9.182;2023-05-15T10:32:49;6.13;;;4.65;;
38851;SDS011;24605;50.092;9.182;2023-05-15T10:35:16;6.82;;;4.47;;
38851;SDS011;24605;50.092;9.182;2023-05-15T10:37:43;8.20;;;4.47;;
38851;SDS011;24605;50.092;9.182;2023-05-15T10:40:12;6.43;;;4.00;;
38851;SDS011;24605;50.092;9.182;2023-05-15T10:42:40;8.57;;;3.80;;
38851;SDS011;24605;50.092;9.182;2023-05-15T10:45:08;7.63;;;3.97;;
38851;SDS011;24605;50.092;9.182;2023-05-15T10:47:37;9.05;;;3.45;;
38851;SDS011;24605;50.092;9.182;2023-05-15T10:50:05;7.50;;;3.92;;
38851;SDS011;24605;50.092;9.182;2023-05-15T10:52:32;5.70;;;3.55;;
38851;SDS011;24605;50.092;9.182;2023-05-15T10:55:00;6.30;;;4.05;;
38851;SDS011;24605;50.092;9.182;2023-05-15T10:57:28;6.30;;;3.50;;
38851;SDS011;24605;50.092;9.182;2023-05-15T10:59:55;22.10;;;4.35;;
38851;SDS011;24605;50.092;9.182;2023-05-15T11:02:22;11.48;;;4.22;;
38851;SDS011;24605;50.092;9.182;2023-05-15T11:04:54;7.38;;;3.70;;
38851;SDS011;24605;50.092;9.182;2023-05-15T11:07:22;7.18;;;4.25;;
38851;SDS011;24605;50.092;9.182;2023-05-15T11:09:49;6.10;;;4.10;;
38851;SDS011;24605;50.092;9.182;2023-05-15T11:12:16;6.55;;;4.10;;
38851;SDS011;24605;50.092;9.182;2023-05-15T11:14:43;5.82;;;4.07;;
38851;SDS011;24605;50.092;9.182;2023-05-15T11:17:30;6.10;;;3.30;;
38851;SDS011;24605;50.092;9.182;2023-05-15T11:19:59;5.57;;;3.25;;
38851;SDS011;24605;50.092;9.182;2023-05-15T11:22:28;6.30;;;3.80;;
38851;SDS011;24605;50.092;9.182;2023-05-15T11:24:59;6.47;;;3.63;;
38851;SDS011;24605;50.092;9.182;2023-05-15T11:27:29;5.32;;;3.40;;
38851;SDS011;24605;50.092;9.182;2023-05-15T11:30:04;7.47;;;3.60;;
38851;SDS011;24605;50.092;9.182;2023-05-15T11:32:39;7.40;;;3.92;;
38851;SDS011;24605;50.092;9.182;2023-05-15T11:35:11;7.60;;;3.92;;
38851;SDS011;24605;50.092;9.182;2023-05-15T11:37:41;6.80;;;3.80;;
38851;SDS011;24605;50.092;9.182;2023-05-15T11:40:11;6.00;;;3.88;;
38851;SDS011;24605;50.092;9.182;2023-05-15T11:42:39;7.00;;;3.75;;
38851;SDS011;24605;50.092;9.182;2023-05-15T11:45:07;6.43;;;4.20;;
38851;SDS011;24605;50.092;9.182;2023-05-15T11:47:35;7.75;;;3.83;;
38851;SDS011;24605;50.092;9.182;2023-05-15T11:50:02;4.85;;;3.90;;
38851;SDS011;24605;50.092;9.182;2023-05-15T11:52:31;6.82;;;3.90;;
38851;SDS011;24605;50.092;9.182;2023-05-15T11:54:58;5.72;;;3.97;;
38851;SDS011;24605;50.092;9.182;2023-05-15T11:57:28;8.13;;;3.95;;
38851;SDS011;24605;50.092;9.182;2023-05-15T11:59:55;4.90;;;3.40;;
38851;SDS011;24605;50.092;9.182;2023-05-15T12:02:21;8.15;;;3.45;;
38851;SDS011;24605;50.092;9.182;2023-05-15T12:04:48;4.75;;;3.15;;
38851;SDS011;24605;50.092;9.182;2023-05-15T12:07:15;7.57;;;3.88;;
38851;SDS011;24605;50.092;9.182;2023-05-15T12:09:44;10.30;;;3.88;;
38851;SDS011;24605;50.092;9.182;2023-05-15T12:12:16;5.35;;;3.45;;
38851;SDS011;24605;50.092;9.182;2023-05-15T12:14:42;7.25;;;3.55;;
38851;SDS011;24605;50.092;9.182;2023-05-15T12:17:09;8.40;;;3.97;;
38851;SDS011;24605;50.092;9.182;2023-05-15T12:19:35;9.15;;;4.50;;
38851;SDS011;24605;50.092;9.182;2023-05-15T12:22:03;6.53;;;4.03;;
38851;SDS011;24605;50.092;9.182;2023-05-15T12:24:31;6.68;;;3.92;;
38851;SDS011;24605;50.092;9.182;2023-05-15T12:27:01;6.80;;;4.18;;
38851;SDS011;24605;50.092;9.182;2023-05-15T12:29:28;8.95;;;4.55;;
38851;SDS011;24605;50.092;9.182;2023-05-15T12:31:54;7.28;;;4.22;;
38851;SDS011;24605;50.092;9.182;2023-05-15T12:34:21;10.98;;;5.10;;
38851;SDS011;24605;50.092;9.182;2023-05-15T12:36:48;8.20;;;4.80;;
38851;SDS011;24605;50.092;9.182;2023-05-15T12:39:15;9.55;;;5.10;;
38851;SDS011;24605;50.092;9.182;2023-05-15T12:41:41;8.07;;;5.78;;
38851;SDS011;24605;50.092;9.182;2023-05-15T12:44:15;9.43;;;6.43;;
38851;SDS011;24605;50.092;9.182;2023-05-15T12:46:42;10.70;;;6.63;;
38851;SDS011;24605;50.092;9.182;2023-05-15T12:49:09;11.10;;;7.03;;
38851;SDS011;24605;50.092;9.182;2023-05-15T12:51:40;6.45;;;5.47;;
38851;SDS011;24605;50.092;9.182;2023-05-15T12:54:15;8.30;;;5.70;;
38851;SDS011;24605;50.092;9.182;2023-05-15T12:56:42;8.68;;;5.60;;
38851;SDS011;24605;50.092;9.182;2023-05-15T12:59:09;7.88;;;6.07;;
38851;SDS011;24605;50.092;9.182;2023-05-15T13:01:37;7.30;;;5.60;;
38851;SDS011;24605;50.092;9.182;2023-05-15T13:04:06;8.55;;;5.80;;
38851;SDS011;24605;50.092;9.182;2023-05-15T13:06:33;6.53;;;4.75;;
38851;SDS011;24605;50.092;9.182;2023-05-15T13:08:59;7.35;;;4.85;;
38851;SDS011;24605;50.092;9.182;2023-05-15T13:11:28;6.40;;;4.22;;
38851;SDS011;24605;50.092;9.182;2023-05-15T13:13:55;6.53;;;4.95;;
38851;SDS011;24605;50.092;9.182;2023-05-15T13:16:23;7.22;;;5.40;;
38851;SDS011;24605;50.092;9.182;2023-05-15T13:18:51;10.63;;;5.32;;
38851;SDS011;24605;50.092;9.182;2023-05-15T13:21:18;8.32;;;4.50;;
38851;SDS011;24605;50.092;9.182;2023-05-15T13:23:45;5.95;;;4.28;;
38851;SDS011;24605;50.092;9.182;2023-05-15T13:26:11;5.60;;;4.00;;
38851;SDS011;24605;50.092;9.182;2023-05-15T13:28:38;8.07;;;5.88;;
38851;SDS011;24605;50.092;9.182;2023-05-15T13:31:04;8.63;;;5.65;;
38851;SDS011;24605;50.092;9.182;2023-05-15T13:33:31;10.18;;;6.32;;
38851;SDS011;24605;50.092;9.182;2023-05-15T13:35:59;9.80;;;6.65;;
38851;SDS011;24605;50.092;9.182;2023-05-15T13:38:25;9.40;;;5.80;;
38851;SDS011;24605;50.092;9.182;2023-05-15T13:40:52;8.15;;;5.82;;
38851;SDS011;24605;50.092;9.182;2023-05-15T13:43:18;13.63;;;5.70;;
38851;SDS011;24605;50.092;9.182;2023-05-15T13:45:45;7.68;;;4.60;;
38851;SDS011;24605;50.092;9.182;2023-05-15T13:48:11;8.45;;;4.55;;
38851;SDS011;24605;50.092;9.182;2023-05-15T13:50:38;8.27;;;4.07;;
38851;SDS011;24605;50.092;9.182;2023-05-15T13:53:05;9.00;;;4.28;;
38851;SDS011;24605;50.092;9.182;2023-05-15T13:55:32;7.03;;;4.65;;
38851;SDS011;24605;50.092;9.182;2023-05-15T13:57:58;5.43;;;4.00;;
38851;SDS011;24605;50.092;9.182;2023-05-15T14:00:26;7.07;;;4.07;;
38851;SDS011;24605;50.092;9.182;2023-05-15T14:02:52;7.38;;;3.97;;
38851;SDS011;24605;50.092;9.182;2023-05-15T14:05:18;5.60;;;3.60;;
38851;SDS011;24605;50.092;9.182;2023-05-15T14:07:45;6.72;;;3.65;;
38851;SDS011;24605;50.092;9.182;2023-05-15T14:10:13;9.55;;;3.20;;
38851;SDS011;24605;50.092;9.182;2023-05-15T14:12:39;4.38;;;2.80;;
38851;SDS011;24605;50.092;9.182;2023-05-15T14:15:07;4.85;;;3.35;;
38851;SDS011;24605;50.092;9.182;2023-05-15T14:17:35;4.60;;;3.40;;
38851;SDS011;24605;50.092;9.182;2023-05-15T14:20:02;6.10;;;3.80;;
38851;SDS011;24605;50.092;9.182;2023-05-15T14:22:30;5.20;;;3.35;;
38851;SDS011;24605;50.092;9.182;2023-05-15T14:24:57;5.60;;;3.28;;
38851;SDS011;24605;50.092;9.182;2023-05-15T14:27:24;5.00;;;2.90;;
38851;SDS011;24605;50.092;9.182;2023-05-15T14:29:51;4.75;;;3.20;;
38851;SDS011;24605;50.092;9.182;2023-05-15T14:32:17;7.70;;;3.55;;
38851;SDS011;24605;50.092;9.182;2023-05-15T14:34:44;5.30;;;3.15;;
38851;SDS011;24605;50.092;9.182;2023-05-15T14:37:10;7.20;;;3.05;;
38851;SDS011;24605;50.092;9.182;2023-05-15T14:39:37;6.38;;;3.03;;
38851;SDS011;24605;50.092;9.182;2023-05-15T14:42:03;7.03;;;2.88;;
38851;SDS011;24605;50.092;9.182;2023-05-15T14:44:32;7.82;;;2.53;;
38851;SDS011;24605;50.092;9.182;2023-05-15T14:47:05;5.35;;;2.40;;
38851;SDS011;24605;50.092;9.182;2023-05-15T14:49:32;3.50;;;2.20;;
38851;SDS011;24605;50.092;9.182;2023-05-15T14:51:59;6.70;;;2.53;;